sensor_id;sensor_type;location;lat;lon;timestamp;P1;durP1;ratioP1;P2;durP2;ratioP2
6757;SDS011;3416;53.074;8.822;2024-03-17T00:57:19;23.90;;;6.55;;
6757;SDS011;3416;53.074;8.822;2024-03-17T00:59:46;13.88;;;5.18;;
6757;SDS011;3416;53.074;8.822;2024-03-17T01:02:13;18.95;;;7.18;;
6757;SDS011;3416;53.074;8.822;2024-03-17T01:04:44;16.77;;;6.25;;
6757;SDS011;3416;53.074;8.822;2024-03-17T01:07:55;30.40;;;6.22;;
6757;SDS011;3416;53.074;8.822;2024-03-17T01:10:38;32.00;;;7.05;;
6757;SDS011;3416;53.074;8.822;2024-03-17T01:13:06;17.63;;;6.10;;
6757;SDS011;3416;53.074;8.822;2024-03-17T01:15:35;26.10;;;6.50;;
6757;SDS011;3416;53.074;8.822;2024-03-17T01:18:02;20.67;;;5.75;;
6757;SDS011;3416;53.074;8.822;2024-03-17T01:20:35;18.27;;;5.82;;
6757;SDS011;3416;53.074;8.822;2024-03-17T01:23:03;14.63;;;6.65;;
6757;SDS011;3416;53.074;8.822;2024-03-17T01:25:45;24.52;;;6.63;;
6757;SDS011;3416;53.074;8.822;2024-03-17T01:34:18;21.88;;;8.50;;
6757;SDS011;3416;53.074;8.822;2024-03-17T01:36:52;21.42;;;6.70;;
6757;SDS011;3416;53.074;8.822;2024-03-17T01:39:21;15.32;;;5.88;;
6757;SDS011;3416;53.074;8.822;2024-03-17T01:41:47;26.08;;;7.45;;
6757;SDS011;3416;53.074;8.822;2024-03-17T01:44:22;26.75;;;6.78;;
6757;SDS011;3416;53.074;8.822;2024-03-17T01:49:55;20.05;;;5.82;;
6757;SDS011;3416;53.074;8.822;2024-03-17T01:52:23;15.82;;;7.45;;
6757;SDS011;3416;53.074;8.822;2024-03-17T01:54:50;30.17;;;7.32;;
6757;SDS011;3416;53.074;8.822;2024-03-17T01:57:17;21.58;;;8.10;;
6757;SDS011;3416;53.074;8.822;2024-03-17T02:00:07;20.88;;;7.50;;
6757;SDS011;3416;53.074;8.822;2024-03-17T02:05:42;18.08;;;6.30;;
6757;SDS011;3416;53.074;8.822;2024-03-17T02:08:09;19.17;;;6.22;;
6757;SDS011;3416;53.074;8.822;2024-03-17T02:10:39;17.23;;;5.40;;
6757;SDS011;3416;53.074;8.822;2024-03-17T02:13:09;18.17;;;6.15;;
6757;SDS011;3416;53.074;8.822;2024-03-17T02:15:42;18.65;;;6.88;;
6757;SDS011;3416;53.074;8.822;2024-03-17T02:18:08;18.38;;;5.55;;
6757;SDS011;3416;53.074;8.822;2024-03-17T02:20:36;15.43;;;6.55;;
6757;SDS011;3416;53.074;8.822;2024-03-17T02:23:19;17.25;;;6.13;;
6757;SDS011;3416;53.074;8.822;2024-03-17T02:25:47;15.32;;;6.60;;
6757;SDS011;3416;53.074;8.822;2024-03-17T02:28:13;14.80;;;6.70;;
6757;SDS011;3416;53.074;8.822;2024-03-17T02:30:40;10.60;;;6.50;;
6757;SDS011;3416;53.074;8.822;2024-03-17T02:33:07;23.00;;;6.63;;
6757;SDS011;3416;53.074;8.822;2024-03-17T02:35:34;19.50;;;8.95;;
6757;SDS011;3416;53.074;8.822;2024-03-17T02:38:00;21.70;;;6.77;;
6757;SDS011;3416;53.074;8.822;2024-03-17T02:40:28;14.82;;;6.30;;
6757;SDS011;3416;53.074;8.822;2024-03-17T02:42:54;18.20;;;7.78;;
6757;SDS011;3416;53.074;8.822;2024-03-17T02:45:21;10.25;;;4.85;;
6757;SDS011;3416;53.074;8.822;2024-03-17T02:47:48;20.17;;;6.10;;
6757;SDS011;3416;53.074;8.822;2024-03-17T02:50:15;24.40;;;6.72;;
6757;SDS011;3416;53.074;8.822;2024-03-17T02:52:43;18.73;;;6.90;;
6757;SDS011;3416;53.074;8.822;2024-03-17T02:55:10;22.52;;;6.45;;
6757;SDS011;3416;53.074;8.822;2024-03-17T02:57:38;11.07;;;5.53;;
6757;SDS011;3416;53.074;8.822;2024-03-17T03:00:06;14.05;;;5.88;;
6757;SDS011;3416;53.074;8.822;2024-03-17T03:02:38;15.98;;;7.55;;
6757;SDS011;3416;53.074;8.822;2024-03-17T03:05:06;15.13;;;5.60;;
6757;SDS011;3416;53.074;8.822;2024-03-17T03:07:33;13.32;;;6.10;;
6757;SDS011;3416;53.074;8.822;2024-03-17T03:10:00;13.43;;;5.45;;
6757;SDS011;3416;53.074;8.822;2024-03-17T03:12:27;14.45;;;5.40;;
6757;SDS011;3416;53.074;8.822;2024-03-17T03:14:56;12.93;;;6.20;;
6757;SDS011;3416;53.074;8.822;2024-03-17T03:17:23;17.17;;;6.05;;
6757;SDS011;3416;53.074;8.822;2024-03-17T03:19:50;22.17;;;5.68;;
6757;SDS011;3416;53.074;8.822;2024-03-17T03:22:17;15.88;;;5.85;;
6757;SDS011;3416;53.074;8.822;2024-03-17T03:24:46;17.60;;;5.88;;
6757;SDS011;3416;53.074;8.822;2024-03-17T03:27:13;26.42;;;7.63;;
6757;SDS011;3416;53.074;8.822;2024-03-17T03:29:40;21.35;;;7.45;;
6757;SDS011;3416;53.074;8.822;2024-03-17T03:32:09;16.98;;;6.28;;
6757;SDS011;3416;53.074;8.822;2024-03-17T03:34:35;21.30;;;7.05;;
6757;SDS011;3416;53.074;8.822;2024-03-17T03:37:04;15.38;;;6.15;;
6757;SDS011;3416;53.074;8.822;2024-03-17T03:39:32;19.98;;;9.30;;
6757;SDS011;3416;53.074;8.822;2024-03-17T03:42:01;18.13;;;6.45;;
6757;SDS011;3416;53.074;8.822;2024-03-17T03:44:28;19.88;;;7.47;;
6757;SDS011;3416;53.074;8.822;2024-03-17T03:46:55;26.05;;;6.43;;
6757;SDS011;3416;53.074;8.822;2024-03-17T03:49:25;19.70;;;7.65;;
6757;SDS011;3416;53.074;8.822;2024-03-17T03:51:52;14.35;;;7.80;;
6757;SDS011;3416;53.074;8.822;2024-03-17T03:54:19;15.23;;;7.05;;
6757;SDS011;3416;53.074;8.822;2024-03-17T03:56:46;21.30;;;6.38;;
6757;SDS011;3416;53.074;8.822;2024-03-17T03:59:13;18.95;;;6.63;;
6757;SDS011;3416;53.074;8.822;2024-03-17T04:01:40;10.30;;;5.72;;
6757;SDS011;3416;53.074;8.822;2024-03-17T04:04:07;16.85;;;7.43;;
6757;SDS011;3416;53.074;8.822;2024-03-17T04:06:36;21.35;;;8.38;;
6757;SDS011;3416;53.074;8.822;2024-03-17T04:09:02;23.23;;;7.15;;
6757;SDS011;3416;53.074;8.822;2024-03-17T04:11:32;24.10;;;7.63;;
6757;SDS011;3416;53.074;8.822;2024-03-17T04:13:59;16.63;;;7.85;;
6757;SDS011;3416;53.074;8.822;2024-03-17T04:16:26;23.38;;;7.75;;
6757;SDS011;3416;53.074;8.822;2024-03-17T04:18:56;12.15;;;7.50;;
6757;SDS011;3416;53.074;8.822;2024-03-17T04:21:23;21.13;;;7.15;;
6757;SDS011;3416;53.074;8.822;2024-03-17T04:23:52;16.35;;;8.38;;
6757;SDS011;3416;53.074;8.822;2024-03-17T04:26:19;27.88;;;7.35;;
6757;SDS011;3416;53.074;8.822;2024-03-17T04:28:46;14.02;;;7.88;;
6757;SDS011;3416;53.074;8.822;2024-03-17T04:31:13;17.30;;;7.65;;
6757;SDS011;3416;53.074;8.822;2024-03-17T04:33:40;18.63;;;6.50;;
6757;SDS011;3416;53.074;8.822;2024-03-17T04:36:07;11.05;;;7.03;;
6757;SDS011;3416;53.074;8.822;2024-03-17T04:38:35;22.48;;;7.88;;
6757;SDS011;3416;53.074;8.822;2024-03-17T04:41:04;18.85;;;7.00;;
6757;SDS011;3416;53.074;8.822;2024-03-17T04:43:33;17.27;;;7.45;;
6757;SDS011;3416;53.074;8.822;2024-03-17T04:46:00;23.48;;;8.35;;
6757;SDS011;3416;53.074;8.822;2024-03-17T04:48:29;22.48;;;8.02;;
6757;SDS011;3416;53.074;8.822;2024-03-17T04:50:56;20.30;;;7.63;;
6757;SDS011;3416;53.074;8.822;2024-03-17T04:53:23;20.60;;;7.60;;
6757;SDS011;3416;53.074;8.822;2024-03-17T04:55:57;23.42;;;7.03;;
6757;SDS011;3416;53.074;8.822;2024-03-17T04:58:31;28.75;;;7.80;;
6757;SDS011;3416;53.074;8.822;2024-03-17T05:01:02;24.23;;;8.18;;
6757;SDS011;3416;53.074;8.822;2024-03-17T05:03:30;19.73;;;6.93;;
6757;SDS011;3416;53.074;8.822;2024-03-17T05:06:00;18.02;;;6.75;;
6757;SDS011;3416;53.074;8.822;2024-03-17T05:08:29;22.15;;;6.55;;
6757;SDS011;3416;53.074;8.822;2024-03-17T05:10:57;9.80;;;6.13;;
6757;SDS011;3416;53.074;8.822;2024-03-17T05:13:24;16.65;;;6.78;;
6757;SDS011;3416;53.074;8.822;2024-03-17T05:15:53;17.58;;;6.95;;
6757;SDS011;3416;53.074;8.822;2024-03-17T05:18:20;19.10;;;7.93;;
6757;SDS011;3416;53.074;8.822;2024-03-17T05:20:56;17.25;;;6.97;;
6757;SDS011;3416;53.074;8.822;2024-03-17T05:23:24;25.63;;;9.23;;
6757;SDS011;3416;53.074;8.822;2024-03-17T05:25:52;13.10;;;7.47;;
6757;SDS011;3416;53.074;8.822;2024-03-17T05:28:20;18.45;;;6.95;;
6757;SDS011;3416;53.074;8.822;2024-03-17T05:30:47;17.05;;;7.35;;
6757;SDS011;3416;53.074;8.822;2024-03-17T05:33:17;24.60;;;8.52;;
6757;SDS011;3416;53.074;8.822;2024-03-17T05:35:48;12.63;;;6.90;;
6757;SDS011;3416;53.074;8.822;2024-03-17T05:38:17;27.15;;;8.13;;
6757;SDS011;3416;53.074;8.822;2024-03-17T05:40:47;16.08;;;6.80;;
6757;SDS011;3416;53.074;8.822;2024-03-17T05:43:19;20.88;;;6.68;;
6757;SDS011;3416;53.074;8.822;2024-03-17T05:45:46;10.77;;;7.75;;
6757;SDS011;3416;53.074;8.822;2024-03-17T05:48:14;18.15;;;8.68;;
6757;SDS011;3416;53.074;8.822;2024-03-17T05:50:42;23.73;;;7.32;;
6757;SDS011;3416;53.074;8.822;2024-03-17T05:53:09;18.83;;;7.35;;
6757;SDS011;3416;53.074;8.822;2024-03-17T05:55:36;12.20;;;6.68;;
6757;SDS011;3416;53.074;8.822;2024-03-17T05:58:03;20.42;;;8.00;;
6757;SDS011;3416;53.074;8.822;2024-03-17T06:00:30;20.05;;;6.35;;
6757;SDS011;3416;53.074;8.822;2024-03-17T06:02:57;24.52;;;8.15;;
6757;SDS011;3416;53.074;8.822;2024-03-17T06:05:25;15.73;;;7.53;;
6757;SDS011;3416;53.074;8.822;2024-03-17T06:07:53;15.85;;;7.10;;
6757;SDS011;3416;53.074;8.822;2024-03-17T06:10:20;21.92;;;8.10;;
6757;SDS011;3416;53.074;8.822;2024-03-17T06:12:49;26.83;;;6.68;;
6757;SDS011;3416;53.074;8.822;2024-03-17T06:15:16;13.88;;;6.68;;
6757;SDS011;3416;53.074;8.822;2024-03-17T06:17:43;17.30;;;7.43;;
6757;SDS011;3416;53.074;8.822;2024-03-17T06:20:10;18.25;;;7.97;;
6757;SDS011;3416;53.074;8.822;2024-03-17T06:22:38;17.75;;;7.93;;
6757;SDS011;3416;53.074;8.822;2024-03-17T06:25:10;20.10;;;9.77;;
6757;SDS011;3416;53.074;8.822;2024-03-17T06:27:39;16.92;;;6.05;;
6757;SDS011;3416;53.074;8.822;2024-03-17T06:30:10;17.88;;;6.95;;
6757;SDS011;3416;53.074;8.822;2024-03-17T06:32:39;19.85;;;6.65;;
6757;SDS011;3416;53.074;8.822;2024-03-17T06:35:07;14.60;;;6.38;;
6757;SDS011;3416;53.074;8.822;2024-03-17T06:37:35;19.90;;;7.72;;
6757;SDS011;3416;53.074;8.822;2024-03-17T06:40:10;10.48;;;6.07;;
6757;SDS011;3416;53.074;8.822;2024-03-17T06:42:40;12.80;;;6.30;;
6757;SDS011;3416;53.074;8.822;2024-03-17T06:45:12;11.50;;;4.85;;
6757;SDS011;3416;53.074;8.822;2024-03-17T06:47:52;13.63;;;4.38;;
6757;SDS011;3416;53.074;8.822;2024-03-17T06:50:21;13.13;;;5.72;;
6757;SDS011;3416;53.074;8.822;2024-03-17T06:52:50;10.15;;;4.85;;
6757;SDS011;3416;53.074;8.822;2024-03-17T06:55:20;10.98;;;5.70;;
6757;SDS011;3416;53.074;8.822;2024-03-17T06:57:50;14.90;;;5.10;;
6757;SDS011;3416;53.074;8.822;2024-03-17T07:00:21;10.23;;;4.45;;
6757;SDS011;3416;53.074;8.822;2024-03-17T07:02:50;17.05;;;4.78;;
6757;SDS011;3416;53.074;8.822;2024-03-17T07:05:21;17.92;;;4.10;;
6757;SDS011;3416;53.074;8.822;2024-03-17T07:07:48;15.88;;;6.15;;
6757;SDS011;3416;53.074;8.822;2024-03-17T07:10:17;16.00;;;5.47;;
6757;SDS011;3416;53.074;8.822;2024-03-17T07:12:46;12.93;;;4.60;;
6757;SDS011;3416;53.074;8.822;2024-03-17T07:15:13;20.90;;;5.23;;
6757;SDS011;3416;53.074;8.822;2024-03-17T07:17:40;12.33;;;5.10;;
6757;SDS011;3416;53.074;8.822;2024-03-17T07:20:10;11.60;;;5.33;;
6757;SDS011;3416;53.074;8.822;2024-03-17T07:22:44;12.20;;;5.53;;
6757;SDS011;3416;53.074;8.822;2024-03-17T07:25:11;14.33;;;4.70;;
6757;SDS011;3416;53.074;8.822;2024-03-17T07:32:40;10.40;;;4.70;;
6757;SDS011;3416;53.074;8.822;2024-03-17T07:35:07;11.07;;;5.47;;
6757;SDS011;3416;53.074;8.822;2024-03-17T07:37:34;13.97;;;5.70;;
6757;SDS011;3416;53.074;8.822;2024-03-17T07:40:03;13.30;;;5.13;;
6757;SDS011;3416;53.074;8.822;2024-03-17T07:42:32;11.10;;;5.00;;
6757;SDS011;3416;53.074;8.822;2024-03-17T07:45:00;11.80;;;5.83;;
6757;SDS011;3416;53.074;8.822;2024-03-17T07:47:27;15.07;;;5.80;;
6757;SDS011;3416;53.074;8.822;2024-03-17T07:50:00;12.83;;;4.70;;
6757;SDS011;3416;53.074;8.822;2024-03-17T07:52:29;15.80;;;5.40;;
6757;SDS011;3416;53.074;8.822;2024-03-17T07:54:57;12.90;;;4.60;;
6757;SDS011;3416;53.074;8.822;2024-03-17T07:57:24;17.90;;;5.77;;
6757;SDS011;3416;53.074;8.822;2024-03-17T07:59:52;12.97;;;5.00;;
6757;SDS011;3416;53.074;8.822;2024-03-17T08:02:21;15.63;;;5.63;;
6757;SDS011;3416;53.074;8.822;2024-03-17T08:04:48;12.10;;;4.33;;
6757;SDS011;3416;53.074;8.822;2024-03-17T08:07:15;11.47;;;4.10;;
6757;SDS011;3416;53.074;8.822;2024-03-17T08:09:42;14.17;;;4.90;;
6757;SDS011;3416;53.074;8.822;2024-03-17T08:12:09;10.57;;;3.87;;
6757;SDS011;3416;53.074;8.822;2024-03-17T08:14:37;18.60;;;5.67;;
6757;SDS011;3416;53.074;8.822;2024-03-17T08:17:04;11.07;;;4.07;;
6757;SDS011;3416;53.074;8.822;2024-03-17T08:19:32;12.33;;;4.30;;
6757;SDS011;3416;53.074;8.822;2024-03-17T08:21:59;12.70;;;4.37;;
6757;SDS011;3416;53.074;8.822;2024-03-17T08:24:26;14.43;;;4.33;;
6757;SDS011;3416;53.074;8.822;2024-03-17T08:26:54;9.23;;;3.60;;
6757;SDS011;3416;53.074;8.822;2024-03-17T08:29:21;10.00;;;4.03;;
6757;SDS011;3416;53.074;8.822;2024-03-17T08:31:50;12.60;;;3.40;;
6757;SDS011;3416;53.074;8.822;2024-03-17T08:34:17;5.40;;;2.70;;
6757;SDS011;3416;53.074;8.822;2024-03-17T08:36:46;8.10;;;3.17;;
6757;SDS011;3416;53.074;8.822;2024-03-17T08:39:13;11.73;;;5.67;;
6757;SDS011;3416;53.074;8.822;2024-03-17T08:41:41;10.83;;;3.60;;
6757;SDS011;3416;53.074;8.822;2024-03-17T08:44:09;10.33;;;3.97;;
6757;SDS011;3416;53.074;8.822;2024-03-17T08:46:37;14.13;;;4.10;;
6757;SDS011;3416;53.074;8.822;2024-03-17T08:49:04;14.00;;;4.40;;
6757;SDS011;3416;53.074;8.822;2024-03-17T08:51:32;15.80;;;3.97;;
6757;SDS011;3416;53.074;8.822;2024-03-17T08:54:01;15.93;;;3.50;;
6757;SDS011;3416;53.074;8.822;2024-03-17T08:56:28;13.53;;;4.43;;
6757;SDS011;3416;53.074;8.822;2024-03-17T08:58:55;17.33;;;5.23;;
6757;SDS011;3416;53.074;8.822;2024-03-17T09:01:22;14.48;;;3.65;;
6757;SDS011;3416;53.074;8.822;2024-03-17T09:03:50;13.43;;;4.13;;
6757;SDS011;3416;53.074;8.822;2024-03-17T09:06:20;14.80;;;4.60;;
6757;SDS011;3416;53.074;8.822;2024-03-17T09:08:47;13.75;;;4.18;;
6757;SDS011;3416;53.074;8.822;2024-03-17T09:11:16;12.23;;;4.70;;
6757;SDS011;3416;53.074;8.822;2024-03-17T09:13:44;13.30;;;3.88;;
6757;SDS011;3416;53.074;8.822;2024-03-17T09:16:11;10.82;;;3.55;;
6757;SDS011;3416;53.074;8.822;2024-03-17T09:18:38;8.75;;;3.67;;
6757;SDS011;3416;53.074;8.822;2024-03-17T09:21:06;8.27;;;3.17;;
6757;SDS011;3416;53.074;8.822;2024-03-17T09:23:35;7.97;;;3.17;;
6757;SDS011;3416;53.074;8.822;2024-03-17T09:26:04;16.27;;;3.77;;
6757;SDS011;3416;53.074;8.822;2024-03-17T09:28:35;10.90;;;4.40;;
6757;SDS011;3416;53.074;8.822;2024-03-17T09:31:03;20.17;;;5.20;;
6757;SDS011;3416;53.074;8.822;2024-03-17T09:33:33;11.23;;;3.43;;
6757;SDS011;3416;53.074;8.822;2024-03-17T09:36:02;7.97;;;3.03;;
6757;SDS011;3416;53.074;8.822;2024-03-17T09:38:31;9.10;;;3.17;;
6757;SDS011;3416;53.074;8.822;2024-03-17T09:41:00;13.23;;;3.50;;
6757;SDS011;3416;53.074;8.822;2024-03-17T09:43:31;17.97;;;3.67;;
6757;SDS011;3416;53.074;8.822;2024-03-17T09:49:10;10.90;;;3.83;;
6757;SDS011;3416;53.074;8.822;2024-03-17T09:51:41;11.40;;;3.23;;
6757;SDS011;3416;53.074;8.822;2024-03-17T09:54:15;10.80;;;3.20;;
6757;SDS011;3416;53.074;8.822;2024-03-17T09:56:44;12.10;;;3.57;;
6757;SDS011;3416;53.074;8.822;2024-03-17T09:59:11;7.67;;;2.60;;
6757;SDS011;3416;53.074;8.822;2024-03-17T10:01:38;7.83;;;2.10;;
6757;SDS011;3416;53.074;8.822;2024-03-17T10:04:05;11.37;;;3.10;;
6757;SDS011;3416;53.074;8.822;2024-03-17T10:06:44;6.97;;;2.70;;
6757;SDS011;3416;53.074;8.822;2024-03-17T10:09:15;5.43;;;2.63;;
6757;SDS011;3416;53.074;8.822;2024-03-17T10:11:46;5.83;;;2.70;;
6757;SDS011;3416;53.074;8.822;2024-03-17T10:14:16;9.37;;;3.20;;
6757;SDS011;3416;53.074;8.822;2024-03-17T10:16:43;6.90;;;2.60;;
6757;SDS011;3416;53.074;8.822;2024-03-17T10:19:11;11.83;;;3.07;;
6757;SDS011;3416;53.074;8.822;2024-03-17T10:21:41;8.87;;;2.37;;
6757;SDS011;3416;53.074;8.822;2024-03-17T10:24:09;6.80;;;3.07;;
6757;SDS011;3416;53.074;8.822;2024-03-17T10:26:43;7.33;;;3.87;;
6757;SDS011;3416;53.074;8.822;2024-03-17T10:29:21;11.33;;;2.63;;
6757;SDS011;3416;53.074;8.822;2024-03-17T10:31:51;5.97;;;2.70;;
6757;SDS011;3416;53.074;8.822;2024-03-17T10:34:19;8.83;;;2.70;;
6757;SDS011;3416;53.074;8.822;2024-03-17T10:36:51;7.77;;;2.43;;
6757;SDS011;3416;53.074;8.822;2024-03-17T10:39:24;9.73;;;2.77;;
6757;SDS011;3416;53.074;8.822;2024-03-17T10:41:57;15.10;;;3.60;;
6757;SDS011;3416;53.074;8.822;2024-03-17T10:44:26;5.03;;;2.73;;
6757;SDS011;3416;53.074;8.822;2024-03-17T10:46:54;3.72;;;2.30;;
6757;SDS011;3416;53.074;8.822;2024-03-17T10:49:23;7.00;;;2.75;;
6757;SDS011;3416;53.074;8.822;2024-03-17T10:51:58;10.50;;;3.50;;
6757;SDS011;3416;53.074;8.822;2024-03-17T10:54:26;10.35;;;3.45;;
6757;SDS011;3416;53.074;8.822;2024-03-17T10:56:54;6.28;;;2.40;;
6757;SDS011;3416;53.074;8.822;2024-03-17T10:59:26;17.70;;;4.00;;
6757;SDS011;3416;53.074;8.822;2024-03-17T11:02:01;12.65;;;4.15;;
6757;SDS011;3416;53.074;8.822;2024-03-17T11:04:29;7.97;;;3.47;;
6757;SDS011;3416;53.074;8.822;2024-03-17T11:06:58;9.35;;;3.75;;
6757;SDS011;3416;53.074;8.822;2024-03-17T11:09:25;12.02;;;4.72;;
6757;SDS011;3416;53.074;8.822;2024-03-17T11:11:53;8.35;;;3.30;;
6757;SDS011;3416;53.074;8.822;2024-03-17T11:14:20;12.02;;;3.17;;
6757;SDS011;3416;53.074;8.822;2024-03-17T11:16:48;10.65;;;3.30;;
6757;SDS011;3416;53.074;8.822;2024-03-17T11:19:16;12.27;;;3.20;;
6757;SDS011;3416;53.074;8.822;2024-03-17T11:21:43;16.08;;;4.10;;
6757;SDS011;3416;53.074;8.822;2024-03-17T11:24:21;6.75;;;2.97;;
6757;SDS011;3416;53.074;8.822;2024-03-17T11:26:50;10.55;;;3.38;;
6757;SDS011;3416;53.074;8.822;2024-03-17T11:29:26;7.32;;;3.08;;
6757;SDS011;3416;53.074;8.822;2024-03-17T11:31:53;6.47;;;2.58;;
6757;SDS011;3416;53.074;8.822;2024-03-17T11:34:27;7.35;;;3.13;;
6757;SDS011;3416;53.074;8.822;2024-03-17T11:36:58;13.80;;;3.67;;
6757;SDS011;3416;53.074;8.822;2024-03-17T11:42:15;13.07;;;4.05;;
6757;SDS011;3416;53.074;8.822;2024-03-17T11:44:42;8.30;;;3.75;;
6757;SDS011;3416;53.074;8.822;2024-03-17T11:47:10;9.35;;;3.65;;
6757;SDS011;3416;53.074;8.822;2024-03-17T11:49:37;14.35;;;5.15;;
6757;SDS011;3416;53.074;8.822;2024-03-17T11:52:04;9.02;;;3.70;;
6757;SDS011;3416;53.074;8.822;2024-03-17T11:54:36;10.30;;;3.22;;
6757;SDS011;3416;53.074;8.822;2024-03-17T11:57:06;6.28;;;3.78;;
6757;SDS011;3416;53.074;8.822;2024-03-17T11:59:34;10.63;;;3.75;;
6757;SDS011;3416;53.074;8.822;2024-03-17T12:02:02;3.70;;;2.50;;
6757;SDS011;3416;53.074;8.822;2024-03-17T12:04:39;7.95;;;2.70;;
6757;SDS011;3416;53.074;8.822;2024-03-17T12:07:07;6.25;;;2.72;;
6757;SDS011;3416;53.074;8.822;2024-03-17T12:09:40;10.23;;;3.60;;
6757;SDS011;3416;53.074;8.822;2024-03-17T12:12:10;11.40;;;4.20;;
6757;SDS011;3416;53.074;8.822;2024-03-17T12:14:40;9.60;;;2.83;;
6757;SDS011;3416;53.074;8.822;2024-03-17T12:17:06;12.80;;;4.20;;
6757;SDS011;3416;53.074;8.822;2024-03-17T12:19:35;6.35;;;2.95;;
6757;SDS011;3416;53.074;8.822;2024-03-17T12:22:03;8.82;;;4.07;;
6757;SDS011;3416;53.074;8.822;2024-03-17T12:24:31;8.15;;;3.15;;
6757;SDS011;3416;53.074;8.822;2024-03-17T12:26:58;5.72;;;3.20;;
6757;SDS011;3416;53.074;8.822;2024-03-17T12:29:29;12.90;;;3.70;;
6757;SDS011;3416;53.074;8.822;2024-03-17T12:31:58;9.38;;;3.88;;
6757;SDS011;3416;53.074;8.822;2024-03-17T12:34:27;4.70;;;2.70;;
6757;SDS011;3416;53.074;8.822;2024-03-17T12:36:56;8.35;;;3.72;;
6757;SDS011;3416;53.074;8.822;2024-03-17T12:39:25;8.40;;;3.40;;
6757;SDS011;3416;53.074;8.822;2024-03-17T12:42:01;5.57;;;3.60;;
6757;SDS011;3416;53.074;8.822;2024-03-17T12:44:31;4.85;;;2.20;;
6757;SDS011;3416;53.074;8.822;2024-03-17T12:46:59;7.78;;;3.28;;
6757;SDS011;3416;53.074;8.822;2024-03-17T12:49:27;11.20;;;4.10;;
6757;SDS011;3416;53.074;8.822;2024-03-17T12:51:54;10.32;;;3.95;;
6757;SDS011;3416;53.074;8.822;2024-03-17T12:54:21;7.65;;;3.20;;
6757;SDS011;3416;53.074;8.822;2024-03-17T12:56:50;9.27;;;5.07;;
6757;SDS011;3416;53.074;8.822;2024-03-17T12:59:40;6.25;;;2.95;;
6757;SDS011;3416;53.074;8.822;2024-03-17T13:02:25;14.05;;;3.38;;
6757;SDS011;3416;53.074;8.822;2024-03-17T13:05:06;9.15;;;3.47;;
6757;SDS011;3416;53.074;8.822;2024-03-17T13:07:39;7.60;;;3.78;;
6757;SDS011;3416;53.074;8.822;2024-03-17T13:10:06;6.57;;;3.25;;
6757;SDS011;3416;53.074;8.822;2024-03-17T13:12:34;5.60;;;3.58;;
6757;SDS011;3416;53.074;8.822;2024-03-17T13:15:03;6.22;;;2.60;;
6757;SDS011;3416;53.074;8.822;2024-03-17T13:17:30;5.20;;;2.72;;
6757;SDS011;3416;53.074;8.822;2024-03-17T13:19:59;9.52;;;4.38;;
6757;SDS011;3416;53.074;8.822;2024-03-17T13:22:26;9.82;;;3.47;;
6757;SDS011;3416;53.074;8.822;2024-03-17T13:24:53;8.70;;;2.90;;
6757;SDS011;3416;53.074;8.822;2024-03-17T13:27:20;8.07;;;3.38;;
6757;SDS011;3416;53.074;8.822;2024-03-17T13:29:47;11.52;;;3.60;;
6757;SDS011;3416;53.074;8.822;2024-03-17T13:32:16;20.38;;;4.07;;
6757;SDS011;3416;53.074;8.822;2024-03-17T13:34:43;8.25;;;3.55;;
6757;SDS011;3416;53.074;8.822;2024-03-17T13:37:10;10.65;;;5.22;;
6757;SDS011;3416;53.074;8.822;2024-03-17T13:39:37;4.45;;;2.90;;
6757;SDS011;3416;53.074;8.822;2024-03-17T13:42:04;6.30;;;3.75;;
6757;SDS011;3416;53.074;8.822;2024-03-17T13:44:32;10.15;;;3.28;;
6757;SDS011;3416;53.074;8.822;2024-03-17T13:46:59;6.60;;;3.83;;
6757;SDS011;3416;53.074;8.822;2024-03-17T13:49:30;7.07;;;3.40;;
6757;SDS011;3416;53.074;8.822;2024-03-17T13:51:56;5.50;;;3.33;;
6757;SDS011;3416;53.074;8.822;2024-03-17T13:54:23;8.00;;;3.70;;
6757;SDS011;3416;53.074;8.822;2024-03-17T13:56:50;9.52;;;4.22;;
6757;SDS011;3416;53.074;8.822;2024-03-17T13:59:17;6.25;;;3.20;;
6757;SDS011;3416;53.074;8.822;2024-03-17T14:01:44;9.48;;;3.42;;
6757;SDS011;3416;53.074;8.822;2024-03-17T14:04:15;6.65;;;3.22;;
6757;SDS011;3416;53.074;8.822;2024-03-17T14:06:44;4.93;;;3.00;;
6757;SDS011;3416;53.074;8.822;2024-03-17T14:09:14;5.07;;;3.05;;
6757;SDS011;3416;53.074;8.822;2024-03-17T14:11:43;8.15;;;3.05;;
6757;SDS011;3416;53.074;8.822;2024-03-17T14:14:10;7.68;;;3.20;;
6757;SDS011;3416;53.074;8.822;2024-03-17T14:16:38;6.35;;;3.38;;
6757;SDS011;3416;53.074;8.822;2024-03-17T14:19:07;9.70;;;3.45;;
6757;SDS011;3416;53.074;8.822;2024-03-17T14:21:34;8.77;;;3.60;;
6757;SDS011;3416;53.074;8.822;2024-03-17T14:24:03;7.70;;;2.60;;
6757;SDS011;3416;53.074;8.822;2024-03-17T14:26:32;4.57;;;2.70;;
6757;SDS011;3416;53.074;8.822;2024-03-17T14:29:00;8.70;;;3.78;;
6757;SDS011;3416;53.074;8.822;2024-03-17T14:31:29;8.38;;;3.00;;
6757;SDS011;3416;53.074;8.822;2024-03-17T14:33:58;3.35;;;2.75;;
6757;SDS011;3416;53.074;8.822;2024-03-17T14:36:25;11.50;;;2.65;;
6757;SDS011;3416;53.074;8.822;2024-03-17T14:38:54;6.25;;;2.60;;
6757;SDS011;3416;53.074;8.822;2024-03-17T14:41:22;6.55;;;2.33;;
6757;SDS011;3416;53.074;8.822;2024-03-17T14:43:50;8.77;;;2.85;;
6757;SDS011;3416;53.074;8.822;2024-03-17T14:46:17;5.53;;;3.33;;
6757;SDS011;3416;53.074;8.822;2024-03-17T14:48:44;5.65;;;2.88;;
6757;SDS011;3416;53.074;8.822;2024-03-17T14:51:12;6.68;;;2.80;;
6757;SDS011;3416;53.074;8.822;2024-03-17T14:53:39;4.82;;;2.92;;
6757;SDS011;3416;53.074;8.822;2024-03-17T14:56:13;8.23;;;5.97;;
6757;SDS011;3416;53.074;8.822;2024-03-17T14:58:42;7.00;;;2.40;;
6757;SDS011;3416;53.074;8.822;2024-03-17T15:01:11;7.97;;;2.80;;
6757;SDS011;3416;53.074;8.822;2024-03-17T15:03:38;5.97;;;3.08;;
6757;SDS011;3416;53.074;8.822;2024-03-17T15:06:08;7.97;;;2.97;;
6757;SDS011;3416;53.074;8.822;2024-03-17T15:08:36;5.68;;;3.00;;
6757;SDS011;3416;53.074;8.822;2024-03-17T15:11:03;5.70;;;3.50;;
6757;SDS011;3416;53.074;8.822;2024-03-17T15:13:34;5.63;;;2.88;;
6757;SDS011;3416;53.074;8.822;2024-03-17T15:16:03;5.55;;;3.00;;
6757;SDS011;3416;53.074;8.822;2024-03-17T15:18:30;6.68;;;2.20;;
6757;SDS011;3416;53.074;8.822;2024-03-17T15:20:58;4.30;;;2.22;;
6757;SDS011;3416;53.074;8.822;2024-03-17T15:23:26;9.25;;;3.13;;
6757;SDS011;3416;53.074;8.822;2024-03-17T15:26:00;10.68;;;3.78;;
6757;SDS011;3416;53.074;8.822;2024-03-17T15:28:32;8.50;;;5.80;;
6757;SDS011;3416;53.074;8.822;2024-03-17T15:31:02;7.40;;;2.80;;
6757;SDS011;3416;53.074;8.822;2024-03-17T15:33:31;12.57;;;3.80;;
6757;SDS011;3416;53.074;8.822;2024-03-17T15:36:00;9.45;;;3.08;;
6757;SDS011;3416;53.074;8.822;2024-03-17T15:38:29;7.43;;;3.08;;
6757;SDS011;3416;53.074;8.822;2024-03-17T15:40:56;4.80;;;3.00;;
6757;SDS011;3416;53.074;8.822;2024-03-17T15:43:23;9.18;;;3.45;;
6757;SDS011;3416;53.074;8.822;2024-03-17T15:45:52;11.32;;;3.33;;
6757;SDS011;3416;53.074;8.822;2024-03-17T15:48:20;10.77;;;4.80;;
6757;SDS011;3416;53.074;8.822;2024-03-17T15:50:53;6.38;;;3.10;;
6757;SDS011;3416;53.074;8.822;2024-03-17T15:53:21;4.57;;;2.50;;
6757;SDS011;3416;53.074;8.822;2024-03-17T15:55:58;6.03;;;2.85;;
6757;SDS011;3416;53.074;8.822;2024-03-17T15:58:26;9.73;;;3.20;;
6757;SDS011;3416;53.074;8.822;2024-03-17T16:00:54;4.97;;;2.00;;
6757;SDS011;3416;53.074;8.822;2024-03-17T16:03:24;4.22;;;2.50;;
6757;SDS011;3416;53.074;8.822;2024-03-17T16:05:57;9.50;;;3.20;;
6757;SDS011;3416;53.074;8.822;2024-03-17T16:08:26;7.13;;;2.65;;
6757;SDS011;3416;53.074;8.822;2024-03-17T16:10:56;12.23;;;4.32;;
6757;SDS011;3416;53.074;8.822;2024-03-17T16:13:26;8.13;;;2.60;;
6757;SDS011;3416;53.074;8.822;2024-03-17T16:15:54;3.70;;;2.60;;
6757;SDS011;3416;53.074;8.822;2024-03-17T16:18:21;11.95;;;3.20;;
6757;SDS011;3416;53.074;8.822;2024-03-17T16:20:59;8.18;;;3.50;;
6757;SDS011;3416;53.074;8.822;2024-03-17T16:23:31;14.25;;;3.95;;
6757;SDS011;3416;53.074;8.822;2024-03-17T16:26:02;9.25;;;3.33;;
6757;SDS011;3416;53.074;8.822;2024-03-17T16:28:30;10.32;;;2.83;;
6757;SDS011;3416;53.074;8.822;2024-03-17T16:30:58;4.53;;;2.20;;
6757;SDS011;3416;53.074;8.822;2024-03-17T16:33:27;4.95;;;2.38;;
6757;SDS011;3416;53.074;8.822;2024-03-17T16:35:56;6.05;;;2.65;;